首页
METAR-TAF:

METAR-TAF

机场 :

迪奥里·哈马尼国际机场

尼亞美, 尼日尔

纬度: 13-29N, 经度: 002-10E, 海拔: 223米

当前天气观测

该预报发布于21分钟前的10:00 UTC
风速8节,风向,在南转南东西转西南之间变化
温度 33°C
湿度 44%
气压 1012 hPa
能见度10公里或以上
1500米以下无云,无积雨云

METAR: DRRN 191000Z 19008KT 150V240 CAVOK 33/19 Q1012 NOSIG

时间: 11:21 (10:21 UTC)

预报

该预报发布于5小时和21分钟前的05:00 UTC
预报有效从19日的 06点(UTC)到 20日的 12点(UTC)
风速10节,风向西
能见度10公里或以上
少量云层高于3300英尺

TAF: DRRN 190500Z 1906/2012 28010KT 9999 FEW033

超过4000个机场的气象观测和天气预报(METAR&TAF报告)。

可查询的气象台以黄色和红色小点在地图上表示。

将鼠标移到小点上方,可查看气象台名称。

然后点击查看天气观测和预报。

如需切换地图:点击带黑十字的绿色按钮放大地图;点击带横线的绿色按钮缩小地图;或者点击绿色箭头查看邻近地区的地图。


METAR-TAF: